createdAt,value
2018-11-13T00:29:04.783Z,41.10
2018-11-13T01:33:06.265Z,30.20
2018-11-13T01:35:34.609Z,34.50
2018-11-13T01:38:03.032Z,34.88
2018-11-13T01:40:31.485Z,33.25
2018-11-13T01:45:27.756Z,29.45
2018-11-13T01:47:56.128Z,28.30
2018-11-13T01:50:24.624Z,33.73
2018-11-13T01:52:53.356Z,32.88
2018-11-13T01:55:22.114Z,31.37
2018-11-13T01:57:50.148Z,29.32
2018-11-13T02:07:22.980Z,34.40
2018-11-13T02:09:51.529Z,29.00
2018-11-13T02:12:19.948Z,31.52
2018-11-13T02:14:48.316Z,28.92
2018-11-13T02:17:16.688Z,27.62
2018-11-13T02:19:45.080Z,31.90
2018-11-13T02:22:13.444Z,28.98
2018-11-13T02:24:41.813Z,32.55
2018-11-13T02:27:10.221Z,24.47
2018-11-13T02:29:38.660Z,27.95
2018-11-13T02:32:07.056Z,30.10
2018-11-13T02:34:35.457Z,24.90
2018-11-13T02:37:03.992Z,26.62
2018-11-13T02:39:32.395Z,27.00
2018-11-13T02:42:00.796Z,27.75
2018-11-13T02:44:29.624Z,22.13
2018-11-13T02:46:58.032Z,23.07
2018-11-13T02:49:26.453Z,29.70
2018-11-13T02:51:54.800Z,28.27
2018-11-13T02:54:23.168Z,26.62
2018-11-13T02:56:51.572Z,27.65
2018-11-13T02:59:19.938Z,26.10
2018-11-13T03:01:48.316Z,24.92
2018-11-13T03:04:16.716Z,29.42
2018-11-13T03:06:45.064Z,29.20
2018-11-13T03:09:14.012Z,27.22
2018-11-13T03:11:42.445Z,28.65
2018-11-13T03:14:10.913Z,23.62
2018-11-13T03:16:39.300Z,27.05
2018-11-13T03:19:07.965Z,24.90
2018-11-13T03:21:36.726Z,25.20
2018-11-13T03:27:37.589Z,26.12
2018-11-13T03:30:16.331Z,27.45
2018-11-13T03:34:09.268Z,29.77
2018-11-13T03:36:37.944Z,26.52
2018-11-13T03:39:07.968Z,31.27
2018-11-13T03:41:36.853Z,28.17
2018-11-13T03:44:06.049Z,26.27
2018-11-13T03:46:34.511Z,28.87
2018-11-13T03:49:02.889Z,28.55
2018-11-13T03:51:31.500Z,29.32
2018-11-13T03:53:59.952Z,27.35
2018-11-13T03:56:28.378Z,29.15
2018-11-13T03:58:56.806Z,27.20
2018-11-13T04:01:25.204Z,30.95
2018-11-13T04:03:53.618Z,27.95
2018-11-13T04:06:21.995Z,22.55
2018-11-13T04:08:50.420Z,29.00
2018-11-13T04:11:18.809Z,27.30
2018-11-13T04:13:47.175Z,28.23
2018-11-13T04:16:15.713Z,22.07
2018-11-13T04:18:44.156Z,22.32
2018-11-13T04:21:12.513Z,24.87
2018-11-13T04:23:40.916Z,24.07
2018-11-13T04:26:09.392Z,27.27
2018-11-13T04:28:38.113Z,22.05
2018-11-13T04:31:06.548Z,21.62
2018-11-13T04:33:34.937Z,26.10
2018-11-13T04:36:03.276Z,27.30
2018-11-13T04:38:31.700Z,26.10
2018-11-13T04:41:00.287Z,22.77
2018-11-13T04:43:28.793Z,20.32
2018-11-13T04:45:57.252Z,24.35
2018-11-13T04:48:25.741Z,25.25
2018-11-13T04:50:54.652Z,25.57
2018-11-13T04:53:23.104Z,23.92
2018-11-13T04:55:51.572Z,22.98
2018-11-13T04:58:19.947Z,23.15
2018-11-13T05:00:48.349Z,17.77
2018-11-13T05:03:16.796Z,26.77
2018-11-13T05:05:45.310Z,32.00
2018-11-13T05:08:13.789Z,22.15
2018-11-13T05:10:42.140Z,20.70
2018-11-13T05:13:10.523Z,19.35
2018-11-13T05:15:38.920Z,38.55
2018-11-13T05:18:07.472Z,23.95
2018-11-13T05:20:36.001Z,18.17
2018-11-13T05:23:04.640Z,21.42
2018-11-13T05:25:33.032Z,23.87
2018-11-13T05:28:01.995Z,17.80
2018-11-13T05:30:30.408Z,24.43
2018-11-13T05:32:58.805Z,15.05
2018-11-13T05:35:27.147Z,25.57
2018-11-13T05:37:55.536Z,22.35
2018-11-13T05:40:24.970Z,17.15
2018-11-13T05:42:53.442Z,16.27
2018-11-13T05:45:23.170Z,17.05
2018-11-13T05:47:51.595Z,16.70
2018-11-13T05:50:20.412Z,14.05
2018-11-13T05:52:52.043Z,18.85
2018-11-13T05:55:20.443Z,17.73
2018-11-13T05:57:48.946Z,20.23
2018-11-13T06:00:22.884Z,16.20
2018-11-13T06:02:51.303Z,23.60
2018-11-13T06:05:19.676Z,18.27
2018-11-13T06:14:47.174Z,25.48
2018-11-13T06:17:17.040Z,22.52
2018-11-13T06:19:45.493Z,29.42
2018-11-13T06:22:13.872Z,30.90
2018-11-13T06:24:42.252Z,21.17
2018-11-13T06:27:10.720Z,23.70
2018-11-13T06:29:39.284Z,24.40
2018-11-13T06:32:38.892Z,23.42
2018-11-13T06:35:07.336Z,24.70
2018-11-13T06:37:35.824Z,22.47
2018-11-13T06:40:04.936Z,22.58
2018-11-13T06:42:33.274Z,25.02
2018-11-13T06:45:01.665Z,23.47
2018-11-13T06:47:30.128Z,24.50
2018-11-13T06:49:58.524Z,22.95
2018-11-13T06:52:27.043Z,17.15
2018-11-13T06:55:04.016Z,21.62
2018-11-13T06:57:33.201Z,21.45
2018-11-13T07:00:02.364Z,25.30
2018-11-13T07:02:30.877Z,26.47
2018-11-13T07:04:59.498Z,20.10
2018-11-13T07:07:27.892Z,17.53
2018-11-13T07:09:56.364Z,14.23
2018-11-13T07:12:24.772Z,16.80
2018-11-13T07:14:53.153Z,18.80
2018-11-13T07:17:21.524Z,14.00
2018-11-13T07:19:50.005Z,23.27
2018-11-13T07:22:18.381Z,16.90
2018-11-13T07:24:46.776Z,18.90
2018-11-13T07:27:15.301Z,17.65
2018-11-13T07:29:43.726Z,17.75
2018-11-13T07:32:12.102Z,12.40
2018-11-13T07:34:40.547Z,14.45
2018-11-13T07:37:08.964Z,17.35
2018-11-13T07:39:37.325Z,13.03
2018-11-13T07:42:06.037Z,11.20
2018-11-13T07:44:34.508Z,11.20
2018-11-13T07:47:02.894Z,12.50
2018-11-13T07:49:31.566Z,15.63
2018-11-13T07:52:00.173Z,10.07
2018-11-13T07:54:28.663Z,10.63
2018-11-13T07:56:57.145Z,18.40
2018-11-13T07:59:25.901Z,14.50
2018-11-13T08:01:54.605Z,12.60
2018-11-13T08:04:23.028Z,10.15
2018-11-13T08:06:51.564Z,6.50
2018-11-13T08:09:19.950Z,14.35
2018-11-13T08:11:48.444Z,9.40
2018-11-13T08:14:16.786Z,6.20
2018-11-13T08:16:45.370Z,8.43
2018-11-13T08:19:14.415Z,11.53
2018-11-13T08:21:42.844Z,7.10
2018-11-13T08:24:11.250Z,10.37
2018-11-13T08:26:39.700Z,9.63
2018-11-13T08:29:08.080Z,8.05
2018-11-13T08:31:36.558Z,10.40
2018-11-13T08:34:05.371Z,17.48
2018-11-13T08:36:33.720Z,7.90
2018-11-13T08:39:02.102Z,6.70
2018-11-13T08:41:30.569Z,11.53
2018-11-13T08:43:58.931Z,8.60
2018-11-13T08:46:27.441Z,12.20
2018-11-13T08:48:55.859Z,6.90
2018-11-13T08:51:24.321Z,5.90
2018-11-13T08:53:52.675Z,9.45
2018-11-13T08:56:21.097Z,6.10
2018-11-13T08:58:49.574Z,11.30
2018-11-13T09:01:17.936Z,9.55
2018-11-13T09:03:46.358Z,9.63
2018-11-13T09:06:14.796Z,15.93
2018-11-13T09:08:43.176Z,8.75
2018-11-13T09:12:14.938Z,10.80
2018-11-13T09:14:43.308Z,10.10
2018-11-13T09:17:11.784Z,11.80
2018-11-13T09:19:40.352Z,9.70
2018-11-13T09:22:08.989Z,6.90
2018-11-13T09:24:37.419Z,13.13
2018-11-13T09:27:06.216Z,7.75
2018-11-13T09:29:35.048Z,7.97
2018-11-13T09:32:03.680Z,11.70
2018-11-13T09:34:32.410Z,14.57
2018-11-13T09:37:00.800Z,9.40
2018-11-13T09:39:29.148Z,10.30
2018-11-13T09:41:57.520Z,10.68
2018-11-13T09:44:25.888Z,9.90
2018-11-13T09:46:54.256Z,9.40
2018-11-13T09:49:22.609Z,10.68
2018-11-13T09:51:51.116Z,13.60
2018-11-13T09:54:19.525Z,13.43
2018-11-13T09:56:48.243Z,6.90
2018-11-13T09:59:16.681Z,10.15
2018-11-13T10:01:45.403Z,9.55
2018-11-13T10:04:14.008Z,12.40
2018-11-13T10:06:41.929Z,10.00
2018-11-13T10:09:11.860Z,8.95
